Briefing drone pour Sury-le-comtal

Rechercher une autre localisation

Conditions de vol :


Nous sommes le : Lundi 23 mai 2022
Il est 14:59 UTC (16:59 LT)

Lever de soleil : 03:38 UTC (05:38 LT)
Coucher de soleil : 19:42 UTC (21:42 LT)

Météo

L'essentiel des conditions de vol

VIGILANCE MÉTÉO FRANCE - Loire (42)
Pas de vigilances particulieres
METAR de LFMH
LFMH 231430Z AUTO 20005KT 160V230 9999 BKN042 BKN050 BKN068 22/15 Q1007

Date d'émission: 23/05/2022
Heure d'émission: 14:30 UTC
Vent: 200° (variable du 160° au 230°) pour 5 KT (9 km/h)
Visibilité horizontale: > 10 km
Plafond :
- Nuages morcelés à 4200ft (1280m)
- Nuages morcelés à 5000ft (1524m)
- Nuages morcelés à 6800ft (2073m)
Température: 22 °C
Point de rosée: 15 °C
Humidité: 65%
Pression (QNH): 1007 hPa
TAF de LFMH
LFMH 161901Z 1619/1712 CNL

Conditions prévues :

Heure d'émission : Bulletin éffectué le 16 à 19:00 UTC
Prévision : Valide du 16 a 19:00 UTC au 17 a 12:00 UTC
Nuages : à 0ft (0 m)
WEBCAM POUR SURY-LE-COMTAL

Réglementation

Voler en sécurité

CARTES AERONAUTIQUE 1/500.000
CARTES VAC (LFMH)
SUP AIP




Chargement des AIP...
NOTAM (SURY-LE-COMTAL + Terrain à proximité / FIR )




Chargement des NOTAMS...
CONTACT PREFECTURE 42


Avertissement : Les données mises à disposition sont indicatives. Oxygène Drone ne pourra être tenu responsable de dégâts causés aux biens et aux personnes.